Aérodrome :
LOGIN :

S'inscrire | Disclaimer

   EN    FR    IT 

 










Légende :    VFR   VFR Marginal   IFR   IFR Intensif   IFR Très Intensif
Visi : 
Plafond : 
>= 8 km
>= 3000ft
5 à 8 km
1000 à 3000 ft
1500m à 5 km
500 à 1000 ft
800 à 1500m
200 à 500 ft
< 800m
< 200 ft
Symboles :   Orages  Brouillard  Fortes neiges  Fortes précipitations  Vent > 20 kt
SIGMETs :   Divers  Orages  Givrage  Turbulence  Onde Orograph.  Cendres Volcan.






- Altitude de l'aérodrome : 245 ft


ETHS - Fassberg

DERNIER METAR :
  • 071120Z 26012KT 9999 SCT035 SCT180 19/06 Q1017 BLU+BLU

METARs EXPIRÉS :
  • 071020Z 28009KT 9999 SCT030 SCT190 17/07 Q1018 BLU+BLU
  • 070920Z 26011KT 9999 SCT030 SCT180 16/07 Q1018 BLU+

TAF TAF ETHS
Valide du 07 à 11h jusqu'au 07 à 20h UTC


071020Z 0711/0720 26010KT 9999 NSW BKN080
TEMPO 0714/0719 27015G25KT 5000 SHRA BKN020CB



MET'MAP, la Météo Aéronautique d'un coup d'oeil ! - Copyright ORBIFLY Décembre 2007 - Disclaimer

ORBIFLY MET'MAP TEAM :

Programmation & Développement : Alexandra Zaïnal
Sur une idée originale de : Baudouin d'Aumeries
Assistance à la programmation : Marc-Olivier Méhu
Soutien technique & logistique : Manuel Goepfert

Contact : metmap@orbifly.com




SOURCES & CREDITS :

   NOAA